createdAt,value
2022-08-02T00:00:00.061Z,1023.72
2022-08-02T00:10:00.129Z,1023.70
2022-08-02T00:20:00.122Z,1023.77
2022-08-02T00:30:01.241Z,1023.71
2022-08-02T00:40:01.010Z,1023.64
2022-08-02T00:50:00.085Z,1023.59
2022-08-02T01:00:00.104Z,1023.70
2022-08-02T01:10:00.137Z,1023.70
2022-08-02T01:20:01.337Z,1023.82
2022-08-02T01:30:00.120Z,1023.84
2022-08-02T01:40:01.190Z,1023.88
2022-08-02T01:50:00.101Z,1023.94
2022-08-02T02:00:00.116Z,1023.87
2022-08-02T02:10:00.073Z,1023.85
2022-08-02T02:20:00.093Z,1023.85
2022-08-02T02:30:00.127Z,1023.85
2022-08-02T02:40:00.100Z,1023.80
2022-08-02T02:50:00.127Z,1023.82
2022-08-02T03:00:00.115Z,1023.79
2022-08-02T03:10:00.093Z,1023.94
2022-08-02T03:20:00.092Z,1024.01
2022-08-02T03:30:01.042Z,1024.05
2022-08-02T03:40:00.094Z,1024.14
2022-08-02T03:50:00.142Z,1024.21
2022-08-02T04:00:00.132Z,1024.27
2022-08-02T04:10:01.393Z,1024.37
2022-08-02T04:20:00.154Z,1024.49
2022-08-02T04:30:00.116Z,1024.54
2022-08-02T04:40:00.116Z,1024.60
2022-08-02T04:50:00.116Z,1024.68
2022-08-02T05:00:01.504Z,1024.64
2022-08-02T05:10:00.114Z,1024.71
2022-08-02T05:20:00.137Z,1024.71
2022-08-02T05:30:00.119Z,1024.71
2022-08-02T05:40:00.950Z,1024.82
2022-08-02T05:50:00.129Z,1024.97
2022-08-02T06:00:00.120Z,1025.03
2022-08-02T06:10:00.120Z,1025.10
2022-08-02T06:20:00.137Z,1025.09
2022-08-02T06:30:00.108Z,1025.03
2022-08-02T06:40:00.108Z,1025.04
2022-08-02T06:50:00.393Z,1024.94
2022-08-02T07:00:00.091Z,1024.97
2022-08-02T07:10:01.033Z,1024.87
2022-08-02T07:20:00.147Z,1024.85
2022-08-02T07:30:00.130Z,1024.85
2022-08-02T07:40:00.075Z,1024.88
2022-08-02T07:50:00.158Z,1024.81
2022-08-02T08:00:00.105Z,1024.73
2022-08-02T08:10:00.130Z,1024.75
2022-08-02T08:20:00.134Z,1024.74
2022-08-02T08:30:00.083Z,1024.65
2022-08-02T08:40:00.143Z,1024.53
2022-08-02T08:50:00.118Z,1024.46
2022-08-02T09:00:00.100Z,1024.61
2022-08-02T09:10:00.122Z,1024.49
2022-08-02T09:20:00.112Z,1024.45
2022-08-02T09:30:11.904Z,1024.46
2022-08-02T09:40:00.160Z,1024.32
2022-08-02T09:50:00.142Z,1024.37
2022-08-02T10:00:00.156Z,1024.25
2022-08-02T10:10:00.163Z,1024.33
2022-08-02T10:20:04.138Z,1024.45
2022-08-02T10:30:00.156Z,1024.33
2022-08-02T10:40:00.123Z,1024.40
2022-08-02T10:50:00.293Z,1024.26
2022-08-02T11:00:00.118Z,1024.04
2022-08-02T11:10:00.107Z,1023.95
2022-08-02T11:20:00.130Z,1023.79
2022-08-02T11:30:00.127Z,1023.55
2022-08-02T11:40:00.064Z,1023.73
2022-08-02T11:50:00.106Z,1023.58
2022-08-02T12:00:00.113Z,1023.62
2022-08-02T12:10:00.139Z,1023.42
2022-08-02T12:20:00.126Z,1023.33
2022-08-02T12:30:00.124Z,1023.21
2022-08-02T12:40:00.096Z,1023.19
2022-08-02T12:50:00.221Z,1023.20
2022-08-02T13:00:00.110Z,1023.06
2022-08-02T13:10:00.414Z,1022.92
2022-08-02T13:20:00.078Z,1022.96
2022-08-02T13:30:00.126Z,1022.83
2022-08-02T13:40:20.322Z,1022.69
2022-08-02T13:50:01.147Z,1022.58
2022-08-02T14:00:00.153Z,1022.56
2022-08-02T14:10:00.117Z,1022.43
2022-08-02T14:20:00.116Z,1022.30
2022-08-02T14:30:00.139Z,1022.27
2022-08-02T14:40:01.103Z,1022.17
2022-08-02T14:50:00.217Z,1022.16
2022-08-02T15:00:00.115Z,1022.03
2022-08-02T15:10:00.107Z,1021.92
2022-08-02T15:20:03.040Z,1021.85
2022-08-02T15:30:00.552Z,1021.83
2022-08-02T15:40:01.210Z,1021.87
2022-08-02T15:50:00.133Z,1021.86
2022-08-02T16:00:00.137Z,1021.81
2022-08-02T16:10:00.127Z,1021.75
2022-08-02T16:20:00.126Z,1021.68
2022-08-02T16:30:00.122Z,1021.63
2022-08-02T16:40:00.161Z,1021.67
2022-08-02T16:50:06.153Z,1021.57
2022-08-02T17:00:00.195Z,1021.53
2022-08-02T17:10:01.657Z,1021.48
2022-08-02T17:20:01.391Z,1021.56
2022-08-02T17:30:00.159Z,1021.62
2022-08-02T17:40:00.140Z,1021.68
2022-08-02T17:50:00.287Z,1021.75
2022-08-02T18:00:03.810Z,1021.73
2022-08-02T18:10:00.113Z,1021.78
2022-08-02T18:20:06.026Z,1021.82
2022-08-02T18:30:04.308Z,1021.93
2022-08-02T18:40:00.115Z,1021.95
2022-08-02T18:50:00.226Z,1021.89
2022-08-02T19:00:02.588Z,1021.90
2022-08-02T19:10:00.139Z,1021.95
2022-08-02T19:20:00.141Z,1021.93
2022-08-02T19:30:00.159Z,1021.96
2022-08-02T19:40:00.116Z,1021.97
2022-08-02T19:50:00.163Z,1021.97
2022-08-02T20:00:00.161Z,1022.00
2022-08-02T20:10:00.123Z,1022.02
2022-08-02T20:20:00.144Z,1022.09
2022-08-02T20:30:00.105Z,1022.04
2022-08-02T20:40:00.140Z,1022.14
2022-08-02T20:50:00.179Z,1022.21
2022-08-02T21:00:00.126Z,1022.14
2022-08-02T21:10:00.111Z,1022.10
2022-08-02T21:20:01.465Z,1022.08
2022-08-02T21:30:00.106Z,1022.11
2022-08-02T21:40:00.135Z,1022.17
2022-08-02T22:00:00.108Z,1022.21
2022-08-02T22:10:00.147Z,1022.23
2022-08-02T22:20:00.128Z,1022.28
2022-08-02T22:30:00.083Z,1022.34
2022-08-02T22:40:06.144Z,1022.41
2022-08-02T22:50:00.212Z,1022.50
2022-08-02T22:59:08.902Z,1022.22
2022-08-02T23:00:00.222Z,1022.56
2022-08-02T23:10:00.109Z,1022.59
2022-08-02T23:20:00.117Z,1022.57
2022-08-02T23:30:00.106Z,1022.53
2022-08-02T23:40:00.132Z,1022.55
2022-08-02T23:50:00.291Z,1022.56
